Gahanna, Ohio
Current Conditions -  °F | °C
As of 10:51 PM on Saturday 20 Dec 2014 (Local Time) from KCMH Reporting Station
Haze Haze  
Wind Chill: 30°   Ceiling: 2100
Heat Index: 30°   Visibility: 6mi
Dew Point: 24°   Wind: 0mph
Humidity: 79%   Direction: NA
Pressure: 30.28"   Gusts: NA
Location:  40.01°N, 82.87°W
Report Text: KCMH 210351Z 00000KT 6SM HZ OVC021 M01/M04 A3028 RMK AO2 SLP264 T10111044
Loading
Personal Weather Stations






























Interactive Weather Map New forecast layout! Learn more

10-Day Weather Forecast

Advertisements
Track Severe Weather on mobile